Time;durP1;ratioP1;P1;durP2;ratioP2;P2;SDS_P1;SDS_P2;PMS_P1;PMS_P2;Temp;Humidity;BMP_temperature;BMP_pressure;BME280_temperature;BME280_humidity;BME280_pressure;Samples;Min_cycle;Max_cycle;Signal;HPM_P1;HPM_P2
2021/05/12 00:00:39;;;;;;;70.30;48.13;;;;;;;;;;5093585;28;20588;-54
2021/05/12 00:03:05;;;;;;;72.30;48.83;;;;;;;;;;5093370;28;20258;-54
2021/05/12 00:05:32;;;;;;;79.50;50.70;;;;;;;;;;5093204;28;20282;-53
2021/05/12 00:07:58;;;;;;;81.67;51.17;;;;;;;;;;5093592;28;20208;-53
2021/05/12 00:10:25;;;;;;;85.13;55.40;;;;;;;;;;5093517;28;20204;-51
2021/05/12 00:12:52;;;;;;;89.77;52.50;;;;;;;;;;5093355;28;20212;-51
2021/05/12 00:15:21;;;;;;;83.47;52.50;;;;;;;;;;5091461;28;20212;-55
2021/05/12 00:17:49;;;;;;;85.40;53.00;;;;;;;;;;5093210;28;20208;-51
2021/05/12 00:20:21;;;;;;;79.60;51.20;;;;;;;;;;5093142;28;20680;-51
2021/05/12 00:22:51;;;;;;;87.67;55.80;;;;;;;;;;5092491;28;20228;-49
2021/05/12 00:25:17;;;;;;;91.27;56.43;;;;;;;;;;5092283;28;20672;-49
2021/05/12 00:27:44;;;;;;;89.73;54.80;;;;;;;;;;5093297;28;20204;-51
2021/05/12 00:30:13;;;;;;;88.47;55.33;;;;;;;;;;5092621;28;20203;-54
2021/05/12 00:32:41;;;;;;;79.37;52.80;;;;;;;;;;5091764;28;20211;-52
2021/05/12 00:35:08;;;;;;;84.47;53.20;;;;;;;;;;5092965;28;20230;-49
2021/05/12 00:37:35;;;;;;;79.73;51.63;;;;;;;;;;5092979;28;20691;-49
2021/05/12 00:40:01;;;;;;;77.77;52.00;;;;;;;;;;5092694;28;20262;-52
2021/05/12 00:42:29;;;;;;;74.97;50.17;;;;;;;;;;5092784;28;20269;-49
2021/05/12 00:44:55;;;;;;;72.80;50.07;;;;;;;;;;5091439;28;20220;-50
2021/05/12 00:47:26;;;;;;;73.83;50.47;;;;;;;;;;5094242;28;20668;-54
2021/05/12 00:49:52;;;;;;;79.43;52.27;;;;;;;;;;5096246;28;20216;-52
2021/05/12 00:52:19;;;;;;;84.43;52.43;;;;;;;;;;5093865;28;20680;-52
2021/05/12 00:54:45;;;;;;;89.77;53.00;;;;;;;;;;5092846;28;20224;-57
2021/05/12 00:57:12;;;;;;;85.77;54.33;;;;;;;;;;5095400;28;20616;-56
2021/05/12 00:59:39;;;;;;;86.00;52.83;;;;;;;;;;5095464;28;20211;-59
2021/05/12 01:02:06;;;;;;;85.20;54.30;;;;;;;;;;5093432;28;20223;-56
2021/05/12 01:04:34;;;;;;;83.13;53.73;;;;;;;;;;5092837;28;20238;-52
2021/05/12 01:07:00;;;;;;;80.07;51.73;;;;;;;;;;5091748;28;20583;-51
2021/05/12 01:09:27;;;;;;;79.10;53.90;;;;;;;;;;5091395;28;20239;-54
2021/05/12 01:11:54;;;;;;;93.50;54.83;;;;;;;;;;5092120;28;20646;-56
2021/05/12 01:14:20;;;;;;;84.37;54.30;;;;;;;;;;5092357;28;20243;-56
2021/05/12 01:16:47;;;;;;;85.47;53.20;;;;;;;;;;5092446;28;20592;-53
2021/05/12 01:19:14;;;;;;;83.00;53.57;;;;;;;;;;5092221;28;20257;-55
2021/05/12 01:21:42;;;;;;;88.33;55.70;;;;;;;;;;5092121;28;20606;-53
2021/05/12 01:24:09;;;;;;;89.23;55.63;;;;;;;;;;5092160;28;20228;-57
2021/05/12 01:26:35;;;;;;;86.67;55.77;;;;;;;;;;5092018;28;20583;-53
2021/05/12 01:29:02;;;;;;;85.10;55.33;;;;;;;;;;5091849;28;20680;-58
2021/05/12 01:31:30;;;;;;;82.83;54.73;;;;;;;;;;5092069;28;20204;-56
2021/05/12 01:33:57;;;;;;;93.40;57.03;;;;;;;;;;5092137;28;20258;-53
2021/05/12 01:36:24;;;;;;;92.80;56.87;;;;;;;;;;5091031;28;20652;-51
2021/05/12 01:38:51;;;;;;;93.93;58.67;;;;;;;;;;5092001;28;20204;-53
2021/05/12 01:41:18;;;;;;;103.17;60.20;;;;;;;;;;5091636;28;20231;-55
2021/05/12 01:43:45;;;;;;;99.17;58.77;;;;;;;;;;5092222;28;20283;-58
2021/05/12 01:46:12;;;;;;;95.57;57.83;;;;;;;;;;5092385;28;20206;-49
2021/05/12 01:48:39;;;;;;;94.60;57.50;;;;;;;;;;5091126;28;20211;-54
2021/05/12 01:51:06;;;;;;;91.10;57.60;;;;;;;;;;5091542;28;20211;-53
2021/05/12 01:53:33;;;;;;;101.87;60.90;;;;;;;;;;5090793;28;20224;-55
2021/05/12 01:56:00;;;;;;;103.33;60.63;;;;;;;;;;5091178;28;20261;-52
2021/05/12 01:58:27;;;;;;;89.67;57.40;;;;;;;;;;5091215;28;20212;-56
2021/05/12 02:00:54;;;;;;;89.43;55.13;;;;;;;;;;5091243;28;20223;-50
2021/05/12 02:03:21;;;;;;;88.63;54.33;;;;;;;;;;5091348;28;20231;-54
2021/05/12 02:05:48;;;;;;;83.83;54.57;;;;;;;;;;5089979;28;20208;-51
2021/05/12 02:08:17;;;;;;;80.90;53.43;;;;;;;;;;5090674;28;20214;-52
2021/05/12 02:10:44;;;;;;;84.93;53.70;;;;;;;;;;5091185;28;20225;-51
2021/05/12 02:13:12;;;;;;;84.53;56.00;;;;;;;;;;5094627;28;20228;-54
2021/05/12 02:15:39;;;;;;;88.17;54.60;;;;;;;;;;5094405;28;20208;-54
2021/05/12 02:18:06;;;;;;;90.77;55.17;;;;;;;;;;5095671;28;20214;-57
2021/05/12 02:20:33;;;;;;;86.17;53.63;;;;;;;;;;5095079;28;20210;-56
2021/05/12 02:23:00;;;;;;;84.23;53.97;;;;;;;;;;5093735;28;20226;-54
2021/05/12 02:25:27;;;;;;;88.17;54.33;;;;;;;;;;5094804;28;20218;-53
2021/05/12 02:27:54;;;;;;;84.77;54.80;;;;;;;;;;5095591;28;20593;-55
2021/05/12 02:30:22;;;;;;;83.17;56.03;;;;;;;;;;5095136;28;20218;-51
2021/05/12 02:32:48;;;;;;;91.30;54.97;;;;;;;;;;5094972;28;20206;-54
2021/05/12 02:35:15;;;;;;;85.00;54.20;;;;;;;;;;5093795;28;20214;-55
2021/05/12 02:37:42;;;;;;;79.13;51.57;;;;;;;;;;5095121;28;20668;-52
2021/05/12 02:40:09;;;;;;;85.10;54.27;;;;;;;;;;5095093;28;20414;-51
2021/05/12 02:42:36;;;;;;;87.63;55.23;;;;;;;;;;5094137;28;20254;-51
2021/05/12 02:45:03;;;;;;;78.00;51.40;;;;;;;;;;5093704;28;20846;-49
2021/05/12 02:47:31;;;;;;;78.53;53.87;;;;;;;;;;5094342;28;20680;-56
2021/05/12 02:49:57;;;;;;;85.77;54.67;;;;;;;;;;5094772;28;20217;-53
2021/05/12 02:52:24;;;;;;;88.93;55.37;;;;;;;;;;5094863;28;20254;-50
2021/05/12 02:54:50;;;;;;;94.77;57.47;;;;;;;;;;5095027;28;20230;-56
2021/05/12 02:57:17;;;;;;;91.23;57.77;;;;;;;;;;5093821;28;20210;-56
2021/05/12 02:59:43;;;;;;;88.27;56.23;;;;;;;;;;5094712;28;20210;-53
2021/05/12 03:02:10;;;;;;;90.23;55.23;;;;;;;;;;5094537;28;20279;-49
2021/05/12 03:04:37;;;;;;;93.30;56.13;;;;;;;;;;5094122;28;20251;-56
2021/05/12 03:07:04;;;;;;;104.60;58.93;;;;;;;;;;5094914;28;20583;-50
2021/05/12 03:09:30;;;;;;;97.50;55.50;;;;;;;;;;5094448;28;20718;-54
2021/05/12 03:11:57;;;;;;;95.73;57.33;;;;;;;;;;5094688;28;20250;-50
2021/05/12 03:14:24;;;;;;;102.53;57.50;;;;;;;;;;5093562;28;20243;-57
2021/05/12 03:16:50;;;;;;;102.50;57.30;;;;;;;;;;5094663;28;20205;-55
2021/05/12 03:19:17;;;;;;;97.60;57.20;;;;;;;;;;5094360;28;20208;-52
2021/05/12 03:21:45;;;;;;;101.00;57.20;;;;;;;;;;5094143;28;20265;-53
2021/05/12 03:24:11;;;;;;;103.50;59.93;;;;;;;;;;5093119;28;20349;-56
2021/05/12 03:26:38;;;;;;;102.10;57.07;;;;;;;;;;5093739;28;20205;-56
2021/05/12 03:29:05;;;;;;;110.73;62.13;;;;;;;;;;5094368;28;20211;-52
2021/05/12 03:31:32;;;;;;;107.37;60.47;;;;;;;;;;5093688;28;20684;-49
2021/05/12 03:33:58;;;;;;;114.23;62.77;;;;;;;;;;5093837;28;20277;-53
2021/05/12 03:36:25;;;;;;;111.90;64.93;;;;;;;;;;5093071;28;20201;-56
2021/05/12 03:38:53;;;;;;;111.97;62.10;;;;;;;;;;5094259;28;20582;-55
2021/05/12 03:41:19;;;;;;;110.53;61.80;;;;;;;;;;5092658;28;20235;-54
2021/05/12 03:43:46;;;;;;;106.67;61.20;;;;;;;;;;5093336;28;20220;-54
2021/05/12 03:46:13;;;;;;;103.00;59.03;;;;;;;;;;5092767;28;20208;-52
2021/05/12 03:48:39;;;;;;;100.37;59.60;;;;;;;;;;5093946;28;20707;-55
2021/05/12 03:51:06;;;;;;;111.00;58.27;;;;;;;;;;5092101;28;20205;-56
2021/05/12 03:53:32;;;;;;;105.10;59.07;;;;;;;;;;5093378;28;20224;-53
2021/05/12 03:56:00;;;;;;;98.70;58.93;;;;;;;;;;5094137;28;20266;-56
2021/05/12 03:58:26;;;;;;;100.80;58.50;;;;;;;;;;5093537;28;20216;-53
2021/05/12 04:00:53;;;;;;;100.00;56.17;;;;;;;;;;5093146;28;20212;-49
2021/05/12 04:03:19;;;;;;;99.07;58.33;;;;;;;;;;5093512;28;20748;-52
2021/05/12 04:05:46;;;;;;;94.50;56.63;;;;;;;;;;5093785;28;20211;-56
2021/05/12 04:08:12;;;;;;;105.73;60.57;;;;;;;;;;5093658;28;20208;-54
2021/05/12 04:10:39;;;;;;;92.80;56.30;;;;;;;;;;5091583;28;20672;-54
2021/05/12 04:13:06;;;;;;;97.00;55.83;;;;;;;;;;5093480;28;20228;-51
2021/05/12 04:15:32;;;;;;;97.73;56.60;;;;;;;;;;5093210;28;20235;-55
2021/05/12 04:17:59;;;;;;;101.17;57.73;;;;;;;;;;5091669;28;20205;-53
2021/05/12 04:20:26;;;;;;;99.43;56.70;;;;;;;;;;5092361;28;20211;-56
2021/05/12 04:22:52;;;;;;;97.43;58.17;;;;;;;;;;5092017;28;20228;-55
2021/05/12 04:25:21;;;;;;;95.57;56.50;;;;;;;;;;5089103;28;20253;-53
2021/05/12 04:27:47;;;;;;;96.83;56.90;;;;;;;;;;5093122;28;20261;-52
2021/05/12 04:30:17;;;;;;;91.27;55.27;;;;;;;;;;5092803;28;20226;-51
2021/05/12 04:32:44;;;;;;;90.50;54.23;;;;;;;;;;5093036;28;20657;-49
2021/05/12 04:35:11;;;;;;;92.23;56.70;;;;;;;;;;5092170;28;20221;-56
2021/05/12 04:37:38;;;;;;;97.60;54.30;;;;;;;;;;5092755;28;20204;-53
2021/05/12 04:40:06;;;;;;;95.07;54.70;;;;;;;;;;5092688;28;20215;-56
2021/05/12 04:42:33;;;;;;;89.93;53.87;;;;;;;;;;5092614;28;20228;-57
2021/05/12 04:44:59;;;;;;;88.73;54.03;;;;;;;;;;5092786;28;20270;-54
2021/05/12 04:47:26;;;;;;;87.87;51.33;;;;;;;;;;5092421;28;20208;-56
2021/05/12 04:49:53;;;;;;;88.60;52.33;;;;;;;;;;5095044;28;20213;-57
2021/05/12 04:52:19;;;;;;;86.30;51.60;;;;;;;;;;5095772;28;20206;-55
2021/05/12 04:54:46;;;;;;;82.97;49.13;;;;;;;;;;5093957;28;20236;-57
2021/05/12 04:57:12;;;;;;;79.83;47.77;;;;;;;;;;5093608;28;20212;-48
2021/05/12 04:59:39;;;;;;;70.03;44.03;;;;;;;;;;5095750;28;20217;-57
2021/05/12 05:02:08;;;;;;;66.10;43.57;;;;;;;;;;5097327;28;20246;-58
2021/05/12 05:04:36;;;;;;;67.87;44.53;;;;;;;;;;5094613;28;20279;-53
2021/05/12 05:07:02;;;;;;;63.17;41.53;;;;;;;;;;5093901;28;20209;-55
2021/05/12 05:09:29;;;;;;;64.80;41.23;;;;;;;;;;5093090;28;20209;-55
2021/05/12 05:11:55;;;;;;;62.27;40.57;;;;;;;;;;5093550;28;20662;-53
2021/05/12 05:14:22;;;;;;;60.17;39.70;;;;;;;;;;5092315;28;20237;-50
2021/05/12 05:16:48;;;;;;;60.33;39.13;;;;;;;;;;5092678;28;20399;-49
2021/05/12 05:19:15;;;;;;;55.80;37.73;;;;;;;;;;5092116;28;20205;-57
2021/05/12 05:21:42;;;;;;;58.37;36.57;;;;;;;;;;5092671;28;20229;-57
2021/05/12 05:24:09;;;;;;;58.90;37.37;;;;;;;;;;5092575;28;20722;-58
2021/05/12 05:26:36;;;;;;;57.40;38.23;;;;;;;;;;5092443;28;20208;-52
2021/05/12 05:29:03;;;;;;;56.80;38.10;;;;;;;;;;5092328;28;20215;-54
2021/05/12 05:31:29;;;;;;;56.50;35.63;;;;;;;;;;5088139;28;20208;-50
2021/05/12 05:33:56;;;;;;;54.17;35.90;;;;;;;;;;5091696;28;20226;-55
2021/05/12 05:36:22;;;;;;;49.80;36.20;;;;;;;;;;5091589;28;20218;-55
2021/05/12 05:38:50;;;;;;;55.27;36.27;;;;;;;;;;5091744;28;20217;-55
2021/05/12 05:41:17;;;;;;;51.73;35.30;;;;;;;;;;5091215;28;20220;-58
2021/05/12 05:43:43;;;;;;;52.23;34.23;;;;;;;;;;5091809;28;20246;-57
2021/05/12 05:46:10;;;;;;;46.37;31.33;;;;;;;;;;5091136;28;20213;-55
2021/05/12 05:48:36;;;;;;;47.97;30.70;;;;;;;;;;5091685;28;20256;-57
2021/05/12 05:51:03;;;;;;;45.53;30.40;;;;;;;;;;5091248;28;20207;-61
2021/05/12 05:53:30;;;;;;;41.43;29.17;;;;;;;;;;5091504;28;20232;-58
2021/05/12 05:55:57;;;;;;;45.20;29.77;;;;;;;;;;5090878;28;20570;-53
2021/05/12 05:58:23;;;;;;;45.67;28.13;;;;;;;;;;5091563;28;20207;-53
2021/05/12 06:00:50;;;;;;;39.50;27.93;;;;;;;;;;5091225;28;20214;-54
2021/05/12 06:03:16;;;;;;;44.87;27.97;;;;;;;;;;5091324;28;20857;-53
2021/05/12 06:05:47;;;;;;;40.37;27.93;;;;;;;;;;5091088;28;20211;-54
2021/05/12 06:08:13;;;;;;;37.17;22.33;;;;;;;;;;5091866;28;20204;-65
2021/05/12 06:10:40;;;;;;;35.30;23.23;;;;;;;;;;5091250;28;20211;-64
2021/05/12 06:13:07;;;;;;;37.50;24.17;;;;;;;;;;5091286;28;20712;-64
2021/05/12 06:15:37;;;;;;;34.40;22.90;;;;;;;;;;5091164;28;20230;-62
2021/05/12 06:18:03;;;;;;;35.70;22.33;;;;;;;;;;5091292;28;20200;-62
2021/05/12 06:20:30;;;;;;;38.60;22.50;;;;;;;;;;5090603;28;20235;-63
2021/05/12 06:23:02;;;;;;;33.37;22.40;;;;;;;;;;5091274;28;20246;-63
2021/05/12 06:25:29;;;;;;;33.47;22.20;;;;;;;;;;5091564;28;20578;-62
2021/05/12 06:27:55;;;;;;;25.10;18.83;;;;;;;;;;5091238;28;20211;-63
2021/05/12 06:30:23;;;;;;;31.47;19.23;;;;;;;;;;5090981;28;20200;-65
2021/05/12 06:32:51;;;;;;;29.23;19.00;;;;;;;;;;5090907;28;20205;-65
2021/05/12 06:35:18;;;;;;;26.50;17.07;;;;;;;;;;5091276;28;20637;-65
2021/05/12 06:37:46;;;;;;;23.37;17.63;;;;;;;;;;5091386;28;20208;-64
2021/05/12 06:40:12;;;;;;;29.27;18.43;;;;;;;;;;5090404;28;20205;-63
2021/05/12 06:42:39;;;;;;;25.97;15.27;;;;;;;;;;5090765;28;20708;-62
2021/05/12 06:45:06;;;;;;;22.87;15.00;;;;;;;;;;5091193;28;20210;-63
2021/05/12 06:47:34;;;;;;;24.97;16.10;;;;;;;;;;5091079;28;20210;-63
2021/05/12 06:50:00;;;;;;;25.40;16.47;;;;;;;;;;5090886;28;20208;-63
2021/05/12 06:52:27;;;;;;;26.57;15.33;;;;;;;;;;5091055;28;20207;-64
2021/05/12 06:54:53;;;;;;;29.83;15.37;;;;;;;;;;5090990;28;20230;-66
2021/05/12 06:57:20;;;;;;;20.13;14.67;;;;;;;;;;5091240;28;20298;-65
2021/05/12 06:59:46;;;;;;;23.80;14.70;;;;;;;;;;5094318;28;20251;-64
2021/05/12 07:02:13;;;;;;;24.47;14.70;;;;;;;;;;5094864;28;20232;-61
2021/05/12 07:04:40;;;;;;;21.10;13.93;;;;;;;;;;5095249;28;20275;-61
2021/05/12 07:07:06;;;;;;;26.87;14.37;;;;;;;;;;5094862;28;20574;-63
2021/05/12 07:09:33;;;;;;;24.10;14.23;;;;;;;;;;5094920;28;20211;-62
2021/05/12 07:11:59;;;;;;;22.67;14.23;;;;;;;;;;5094128;28;20612;-65
2021/05/12 07:14:26;;;;;;;20.23;12.53;;;;;;;;;;5094192;28;20239;-64
2021/05/12 07:16:53;;;;;;;22.20;13.73;;;;;;;;;;5094580;28;20219;-65
2021/05/12 07:19:19;;;;;;;23.93;14.10;;;;;;;;;;5094546;28;20206;-63
2021/05/12 07:21:47;;;;;;;20.33;12.93;;;;;;;;;;5094061;28;20223;-64
2021/05/12 07:24:13;;;;;;;23.00;13.43;;;;;;;;;;5094628;28;20700;-64
2021/05/12 07:26:40;;;;;;;24.03;15.40;;;;;;;;;;5094445;28;20206;-64
2021/05/12 07:29:06;;;;;;;18.70;12.83;;;;;;;;;;5094114;28;20624;-64
2021/05/12 07:31:39;;;;;;;23.00;13.97;;;;;;;;;;5094023;28;20232;-64
2021/05/12 07:34:09;;;;;;;17.67;12.57;;;;;;;;;;5093981;28;20224;-64
2021/05/12 07:36:37;;;;;;;17.87;13.00;;;;;;;;;;5094370;28;20234;-63
2021/05/12 07:39:05;;;;;;;17.00;13.23;;;;;;;;;;5093970;28;20230;-63
2021/05/12 07:41:31;;;;;;;25.23;13.90;;;;;;;;;;5093391;28;20878;-63
2021/05/12 07:43:58;;;;;;;18.43;13.20;;;;;;;;;;5093956;28;20231;-64
2021/05/12 07:46:24;;;;;;;23.90;13.97;;;;;;;;;;5093886;28;20212;-64
2021/05/12 07:48:51;;;;;;;23.87;14.53;;;;;;;;;;5094031;28;20205;-64
2021/05/12 07:51:17;;;;;;;18.70;15.07;;;;;;;;;;5093281;28;20269;-64
2021/05/12 07:53:44;;;;;;;20.73;14.93;;;;;;;;;;5093831;28;20224;-64
2021/05/12 07:56:11;;;;;;;25.87;15.17;;;;;;;;;;5093290;28;20202;-63
2021/05/12 07:58:38;;;;;;;24.27;16.20;;;;;;;;;;5093922;28;20214;-65
2021/05/12 08:01:14;;;;;;;21.63;14.00;;;;;;;;;;5092892;28;20668;-65
2021/05/12 08:03:41;;;;;;;23.97;14.70;;;;;;;;;;5093525;28;20698;-66
2021/05/12 08:06:07;;;;;;;24.43;16.23;;;;;;;;;;5093476;28;20212;-66
2021/05/12 08:08:34;;;;;;;25.53;15.70;;;;;;;;;;5092843;28;20204;-66
2021/05/12 08:11:00;;;;;;;23.33;15.60;;;;;;;;;;5093201;28;20208;-67
2021/05/12 08:13:28;;;;;;;20.73;16.17;;;;;;;;;;5093162;28;20231;-65
2021/05/12 08:15:54;;;;;;;24.43;17.97;;;;;;;;;;5089502;28;20208;-65
2021/05/12 08:18:21;;;;;;;24.13;16.50;;;;;;;;;;5092208;28;20204;-66
2021/05/12 08:20:47;;;;;;;21.93;14.80;;;;;;;;;;5093055;28;20203;-63
2021/05/12 08:23:14;;;;;;;23.53;15.67;;;;;;;;;;5093076;28;20270;-63
2021/05/12 08:25:44;;;;;;;20.60;15.50;;;;;;;;;;5093451;28;20208;-65
2021/05/12 08:28:11;;;;;;;20.53;15.67;;;;;;;;;;5093176;28;20228;-65
2021/05/12 08:30:44;;;;;;;19.53;16.47;;;;;;;;;;5092807;28;20211;-67
2021/05/12 08:33:11;;;;;;;25.40;16.00;;;;;;;;;;5093198;28;20216;-67
2021/05/12 08:35:38;;;;;;;17.93;14.83;;;;;;;;;;5092760;28;20231;-66
2021/05/12 08:38:04;;;;;;;20.10;13.87;;;;;;;;;;5092999;28;20227;-66
2021/05/12 08:40:31;;;;;;;16.33;13.80;;;;;;;;;;5092981;28;20234;-66
2021/05/12 08:45:27;;;;;;;18.27;15.60;;;;;;;;;;5031379;28;20244;-63
2021/05/12 08:47:56;;;;;;;16.17;13.60;;;;;;;;;;5032734;28;20259;-63
2021/05/12 08:50:23;;;;;;;17.47;13.90;;;;;;;;;;5032182;28;20206;-64
2021/05/12 08:52:50;;;;;;;16.80;13.30;;;;;;;;;;5034532;28;20209;-65
2021/05/12 08:55:16;;;;;;;17.50;13.73;;;;;;;;;;5033709;28;20233;-64
2021/05/12 08:57:43;;;;;;;16.13;13.20;;;;;;;;;;5032854;28;20210;-64
2021/05/12 09:00:10;;;;;;;19.13;15.10;;;;;;;;;;5032336;28;20214;-66
2021/05/12 09:02:36;;;;;;;19.80;16.53;;;;;;;;;;5033768;28;20603;-65
2021/05/12 09:05:05;;;;;;;20.80;17.27;;;;;;;;;;5037850;28;20221;-65
2021/05/12 09:07:32;;;;;;;20.30;16.37;;;;;;;;;;5033134;28;20213;-67
2021/05/12 09:09:59;;;;;;;17.70;14.40;;;;;;;;;;5032310;28;20202;-67
2021/05/12 09:12:26;;;;;;;17.57;12.43;;;;;;;;;;5032096;28;20206;-65
2021/05/12 09:14:55;;;;;;;17.10;13.07;;;;;;;;;;5032033;28;20226;-66
2021/05/12 09:17:31;;;;;;;17.93;15.17;;;;;;;;;;5031826;28;20615;-58
2021/05/12 09:19:58;;;;;;;21.67;18.07;;;;;;;;;;5031708;28;20287;-60
2021/05/12 09:22:25;;;;;;;20.27;17.97;;;;;;;;;;5031426;28;20229;-59
2021/05/12 09:25:04;;;;;;;22.50;18.23;;;;;;;;;;5032004;28;20222;-57
2021/05/12 09:27:31;;;;;;;23.13;17.77;;;;;;;;;;5031981;28;20217;-56
2021/05/12 09:29:59;;;;;;;19.97;15.53;;;;;;;;;;5031536;28;20207;-57
2021/05/12 09:32:26;;;;;;;18.47;16.47;;;;;;;;;;5031632;28;20642;-54
2021/05/12 09:34:55;;;;;;;19.90;17.00;;;;;;;;;;5031776;28;20223;-57
2021/05/12 09:37:29;;;;;;;21.63;17.03;;;;;;;;;;5031724;28;20221;-56
2021/05/12 09:39:57;;;;;;;19.67;17.17;;;;;;;;;;5031991;28;20264;-55
2021/05/12 09:42:24;;;;;;;22.07;17.67;;;;;;;;;;5031448;28;20230;-56
2021/05/12 09:45:13;;;;;;;19.97;17.87;;;;;;;;;;5031956;28;20367;-51
2021/05/12 09:47:40;;;;;;;20.00;16.90;;;;;;;;;;5032294;28;20213;-50
2021/05/12 09:50:15;;;;;;;19.23;17.20;;;;;;;;;;5031469;28;20237;-60
2021/05/12 09:52:42;;;;;;;18.73;15.97;;;;;;;;;;5031385;28;20216;-58
2021/05/12 09:55:09;;;;;;;16.80;15.00;;;;;;;;;;5031421;28;20214;-61
2021/05/12 09:57:36;;;;;;;15.73;13.93;;;;;;;;;;5031785;28;20206;-55
2021/05/12 10:00:03;;;;;;;20.73;16.20;;;;;;;;;;5031244;28;20321;-59
2021/05/12 10:02:44;;;;;;;20.07;15.77;;;;;;;;;;5031416;28;20237;-59
2021/05/12 10:05:11;;;;;;;20.67;15.50;;;;;;;;;;5031550;28;20209;-57
2021/05/12 10:07:37;;;;;;;21.97;19.57;;;;;;;;;;5031679;28;20213;-57
2021/05/12 10:10:05;;;;;;;23.60;18.03;;;;;;;;;;5031342;28;20206;-56
2021/05/12 10:12:32;;;;;;;21.57;19.27;;;;;;;;;;5031185;28;20617;-59
2021/05/12 10:14:59;;;;;;;28.90;22.33;;;;;;;;;;5031297;28;20230;-57
2021/05/12 10:17:26;;;;;;;23.37;19.83;;;;;;;;;;5031239;28;20633;-56
2021/05/12 10:19:53;;;;;;;24.50;17.90;;;;;;;;;;5030908;28;20210;-56
2021/05/12 10:22:20;;;;;;;19.53;16.93;;;;;;;;;;5030898;28;20242;-56
2021/05/12 10:24:47;;;;;;;22.53;14.27;;;;;;;;;;5031411;28;20227;-57
2021/05/12 10:27:15;;;;;;;17.43;15.47;;;;;;;;;;5031066;28;20210;-58
2021/05/12 10:29:43;;;;;;;15.80;12.43;;;;;;;;;;5031272;28;20210;-58
2021/05/12 10:32:17;;;;;;;14.10;12.67;;;;;;;;;;5031866;28;20209;-54
2021/05/12 10:34:46;;;;;;;12.00;9.60;;;;;;;;;;5034894;28;20597;-57
2021/05/12 10:37:21;;;;;;;11.30;9.20;;;;;;;;;;5034649;28;20565;-54
2021/05/12 10:39:50;;;;;;;13.80;9.00;;;;;;;;;;5034931;28;20205;-61
2021/05/12 10:42:31;;;;;;;11.73;8.87;;;;;;;;;;5034725;28;20226;-61
2021/05/12 10:45:00;;;;;;;10.70;8.20;;;;;;;;;;5034064;28;20238;-61
2021/05/12 10:47:36;;;;;;;12.83;7.93;;;;;;;;;;5034804;28;20290;-62
2021/05/12 10:50:03;;;;;;;9.90;7.30;;;;;;;;;;5034439;28;20288;-61
2021/05/12 10:52:29;;;;;;;10.20;8.70;;;;;;;;;;5034734;28;20207;-63
2021/05/12 10:54:56;;;;;;;14.00;9.93;;;;;;;;;;5034538;28;20254;-65
2021/05/12 10:57:41;;;;;;;13.17;9.60;;;;;;;;;;5034417;28;20218;-64
2021/05/12 11:00:09;;;;;;;11.30;8.27;;;;;;;;;;5034212;28;20264;-63
2021/05/12 11:03:04;;;;;;;11.70;6.97;;;;;;;;;;5034494;28;20631;-63
2021/05/12 11:05:44;;;;;;;9.60;7.53;;;;;;;;;;5034402;28;20210;-64
2021/05/12 11:08:12;;;;;;;6.87;4.23;;;;;;;;;;5034540;28;20220;-63
2021/05/12 11:10:49;;;;;;;6.93;4.07;;;;;;;;;;5034041;28;20645;-64
2021/05/12 11:13:19;;;;;;;8.00;4.30;;;;;;;;;;5034307;28;20226;-65
2021/05/12 11:15:51;;;;;;;5.53;4.00;;;;;;;;;;5034333;28;20260;-63
2021/05/12 11:18:32;;;;;;;7.20;4.57;;;;;;;;;;5034111;28;20260;-63
2021/05/12 11:21:14;;;;;;;8.73;5.50;;;;;;;;;;5033500;28;20252;-62
2021/05/12 11:23:55;;;;;;;7.20;4.10;;;;;;;;;;5034133;28;20238;-63
2021/05/12 11:26:37;;;;;;;5.77;5.10;;;;;;;;;;5033995;28;20255;-63
2021/05/12 11:31:07;;;;;;;7.93;6.20;;;;;;;;;;5034163;28;20242;-63
2021/05/12 11:31:55;;;;;;;11.93;8.90;;;;;;;;;;5033536;28;20212;-66
2021/05/12 11:34:21;;;;;;;11.93;8.17;;;;;;;;;;5033846;28;20321;-64
2021/05/12 11:36:48;;;;;;;13.47;8.53;;;;;;;;;;5033694;28;20202;-65
2021/05/12 11:39:15;;;;;;;10.43;8.53;;;;;;;;;;5033832;28;20794;-66
2021/05/12 11:41:42;;;;;;;9.83;8.40;;;;;;;;;;5033543;28;20214;-65
2021/05/12 11:44:08;;;;;;;8.73;7.83;;;;;;;;;;5032971;28;20241;-65
2021/05/12 11:46:36;;;;;;;11.43;8.17;;;;;;;;;;5033550;28;20206;-63
2021/05/12 11:49:04;;;;;;;10.30;8.67;;;;;;;;;;5033998;28;20218;-63
2021/05/12 11:51:32;;;;;;;13.07;9.10;;;;;;;;;;5032999;28;20213;-63
2021/05/12 11:56:42;;;;;;;12.97;8.90;;;;;;;;;;4741954;26;20220;-63
2021/05/12 11:59:08;;;;;;;9.63;7.17;;;;;;;;;;5073436;28;20205;-63
2021/05/12 12:01:38;;;;;;;12.00;8.83;;;;;;;;;;5072891;28;20205;-63
2021/05/12 12:04:15;;;;;;;11.70;9.33;;;;;;;;;;5073127;28;20259;-63
2021/05/12 12:06:42;;;;;;;12.93;8.63;;;;;;;;;;5073740;28;20205;-63
2021/05/12 12:09:09;;;;;;;13.97;9.13;;;;;;;;;;5073262;28;20300;-63
2021/05/12 12:11:35;;;;;;;11.53;8.60;;;;;;;;;;5073002;28;20208;-63
2021/05/12 12:14:02;;;;;;;11.40;9.83;;;;;;;;;;5072950;28;20236;-63
2021/05/12 12:16:29;;;;;;;11.37;9.40;;;;;;;;;;5073143;28;20665;-63
2021/05/12 12:18:55;;;;;;;11.87;9.60;;;;;;;;;;5073098;28;20852;-63
2021/05/12 12:21:30;;;;;;;13.37;10.17;;;;;;;;;;5073021;28;20870;-63
2021/05/12 12:23:57;;;;;;;11.97;9.47;;;;;;;;;;5118060;22;20236;-63
2021/05/12 12:26:25;;;;;;;14.63;9.70;;;;;;;;;;5073120;28;20205;-63
2021/05/12 12:28:53;;;;;;;15.60;9.80;;;;;;;;;;5073089;28;20220;-63
2021/05/12 12:31:21;;;;;;;14.33;9.43;;;;;;;;;;5072230;28;20212;-64
2021/05/12 12:34:06;;;;;;;10.63;8.90;;;;;;;;;;5096121;22;20233;-63
2021/05/12 12:36:33;;;;;;;13.83;8.40;;;;;;;;;;5072877;28;20224;-61
2021/05/12 12:39:03;;;;;;;10.57;8.93;;;;;;;;;;5070215;28;20208;-63
2021/05/12 12:41:29;;;;;;;12.03;8.53;;;;;;;;;;5052209;28;20690;-63
2021/05/12 12:43:56;;;;;;;11.47;8.07;;;;;;;;;;5052748;28;20237;-63
2021/05/12 12:46:26;;;;;;;12.33;9.43;;;;;;;;;;5052651;28;20206;-62
2021/05/12 12:48:52;;;;;;;15.03;11.97;;;;;;;;;;5052689;28;20750;-61
2021/05/12 12:51:33;;;;;;;11.23;8.00;;;;;;;;;;5052163;28;20216;-61
2021/05/12 12:54:00;;;;;;;11.00;8.23;;;;;;;;;;5064997;28;20248;-62
2021/05/12 12:56:26;;;;;;;9.87;7.47;;;;;;;;;;5071535;28;20205;-63
2021/05/12 12:59:05;;;;;;;10.63;7.90;;;;;;;;;;5072365;28;20212;-64
2021/05/12 13:01:32;;;;;;;10.23;7.90;;;;;;;;;;5058481;28;20312;-64
2021/05/12 13:04:13;;;;;;;12.17;8.20;;;;;;;;;;5056202;28;20230;-63
2021/05/12 13:06:40;;;;;;;13.00;8.13;;;;;;;;;;5054836;28;20314;-61
2021/05/12 13:09:22;;;;;;;11.63;8.03;;;;;;;;;;5052632;28;20210;-63
2021/05/12 13:11:51;;;;;;;11.17;7.43;;;;;;;;;;5053327;28;20216;-62
2021/05/12 13:14:18;;;;;;;10.03;8.33;;;;;;;;;;5053691;28;20226;-63
2021/05/12 13:16:44;;;;;;;13.23;9.33;;;;;;;;;;5054516;28;20205;-62
2021/05/12 13:19:11;;;;;;;13.13;8.60;;;;;;;;;;5052052;28;20737;-65
2021/05/12 13:21:39;;;;;;;13.03;9.77;;;;;;;;;;5051211;28;20209;-64
2021/05/12 13:24:07;;;;;;;13.60;9.47;;;;;;;;;;5051485;28;20804;-64
2021/05/12 13:26:34;;;;;;;17.07;10.43;;;;;;;;;;5051722;28;20270;-64
2021/05/12 13:29:01;;;;;;;14.77;11.63;;;;;;;;;;5051455;28;20201;-64
2021/05/12 13:31:28;;;;;;;16.83;14.17;;;;;;;;;;5062738;28;20205;-62
2021/05/12 13:33:55;;;;;;;19.43;17.37;;;;;;;;;;5071867;28;20236;-62
2021/05/12 13:36:22;;;;;;;21.87;18.13;;;;;;;;;;5071944;28;20216;-62
2021/05/12 13:38:48;;;;;;;23.33;18.40;;;;;;;;;;5071853;28;20221;-62
2021/05/12 13:41:15;;;;;;;21.23;16.97;;;;;;;;;;5071194;28;20209;-62
2021/05/12 13:43:42;;;;;;;19.57;17.47;;;;;;;;;;5058782;28;20764;-61
2021/05/12 13:46:09;;;;;;;19.93;17.83;;;;;;;;;;5070795;28;20212;-62
2021/05/12 13:48:35;;;;;;;21.10;17.47;;;;;;;;;;5071495;28;20689;-62
2021/05/12 13:51:02;;;;;;;20.10;17.97;;;;;;;;;;5071269;28;20200;-55
2021/05/12 13:53:33;;;;;;;18.90;17.00;;;;;;;;;;5068861;28;20220;-60
2021/05/12 13:56:06;;;;;;;19.00;16.90;;;;;;;;;;5071217;28;20216;-60
2021/05/12 14:04:02;;;;;;;19.63;17.57;;;;;;;;;;5071395;28;20228;-59
2021/05/12 14:06:30;;;;;;;19.97;17.93;;;;;;;;;;5071538;28;20208;-58
2021/05/12 14:08:59;;;;;;;18.23;16.43;;;;;;;;;;5075337;28;20208;-60
2021/05/12 14:11:27;;;;;;;20.07;17.90;;;;;;;;;;5075290;28;20212;-60
2021/05/12 14:14:02;;;;;;;20.53;18.33;;;;;;;;;;5075657;28;20224;-59
2021/05/12 14:16:38;;;;;;;22.20;18.90;;;;;;;;;;5075775;28;20676;-57
2021/05/12 14:19:04;;;;;;;20.13;18.00;;;;;;;;;;5075503;28;20671;-56
2021/05/12 14:21:31;;;;;;;21.10;17.40;;;;;;;;;;5075433;28;20258;-55
2021/05/12 14:23:57;;;;;;;21.17;18.70;;;;;;;;;;5075533;28;20627;-56
2021/05/12 14:26:24;;;;;;;19.53;17.53;;;;;;;;;;5075836;28;20241;-63
2021/05/12 14:28:55;;;;;;;21.37;18.40;;;;;;;;;;5075551;28;20262;-59
2021/05/12 14:31:23;;;;;;;24.07;18.37;;;;;;;;;;5074927;28;20214;-61
2021/05/12 14:33:50;;;;;;;21.53;17.90;;;;;;;;;;5075241;28;20232;-57